Terminal Aerodrome Forecast
Issued by NWS

Home | Current Version | Previous Version | Text Only | Print | Product List | Glossary Off
Versions: 1 2 3 4 5 6 7 8 9 10 11 12 13 14 15 16 17 18 19 20 21 22 23

000
FTUS43 KBIS 171720
TAFMOT
TAF
KMOT 171720Z 1718/1818 11023G27KT P6SM SCT120
     FM172300 12014G23KT P6SM VCSH OVC110
     FM180000 10010KT 6SM -RA OVC080
     FM180300 09007KT 2SM -SN OVC080
     FM180800 35004KT 2SM -SN OVC020
     FM181000 34004KT P6SM OVC015=

USA.gov is the U.S. government's official web portal to all federal, state and local government web resources and services.